WetterOnline ( https://www.wetteronline.de )

Wetter aktuell Aachen

Aktuelles Wetter: Aachen-Orsbach (231m)

6-stündlich | Neueste Meldungen
Ortszeit Temperatur Wetter
Mo, 01.06. 14:00 22.8° C wolkenlos
Mo, 01.06. 8:00 13.8° C fast wolkenlos
Mo, 01.06. 2:00 12.2° C wolkig
So, 31.05. 20:00 18.9° C leicht bewölkt
So, 31.05. 14:00 18.1° C wolkenlos
So, 31.05. 8:00 12.4° C wolkenlos
So, 31.05. 2:00 11.6° C wolkenlos
Sa, 30.05. 20:00 20.0° C wolkenlos
Ortszeit Temperatur Wetter
Mo, 01.06. 19:00 23.5° C leicht bewölkt
Mo, 01.06. 18:50 23.5° C leicht bewölkt
Mo, 01.06. 18:40 23.6° C fast wolkenlos
Mo, 01.06. 18:30 23.7° C wolkenlos
Mo, 01.06. 18:20 23.7° C wolkenlos
Mo, 01.06. 18:10 23.7° C wolkenlos
Mo, 01.06. 18:00 23.9° C fast wolkenlos
Mo, 01.06. 17:30 23.9° C fast wolkenlos
Mo, 01.06. 17:00 24.1° C leicht bewölkt
Mo, 01.06. 16:30 24.1° C fast wolkenlos
Mo, 01.06. 16:00 23.7° C wolkenlos
Ortszeit Relative Feuchte Sichtweite
Mo, 01.06. 14:00 40% 45 km
Mo, 01.06. 8:00 65% >70 km
Mo, 01.06. 2:00 64% 65 km
So, 31.05. 20:00 41% >70 km
So, 31.05. 14:00 40% >70 km
So, 31.05. 8:00 59% 60 km
So, 31.05. 2:00 57% >70 km
Sa, 30.05. 20:00 32% 65 km
Ortszeit Relative Feuchte Sichtweite
Mo, 01.06. 19:00 37% 50 km
Mo, 01.06. 18:50 37% -
Mo, 01.06. 18:40 37% -
Mo, 01.06. 18:30 37% 60 km
Mo, 01.06. 18:20 37% -
Mo, 01.06. 18:10 37% -
Mo, 01.06. 18:00 36% 55 km
Mo, 01.06. 17:30 36% 50 km
Mo, 01.06. 17:00 36% 65 km
Mo, 01.06. 16:30 35% 60 km
Mo, 01.06. 16:00 37% 50 km
Ortszeit Niederschlagsmenge Niederschlagsart
Mo, 01.06. 14:00 0.0 l/m2 in 6 Std. -
Mo, 01.06. 8:00 0.0 l/m2 in 12 Std. -
Mo, 01.06. 2:00 0.0 l/m2 in 6 Std. -
So, 31.05. 20:00 0.0 l/m2 in 12 Std. -
So, 31.05. 14:00 0.0 l/m2 in 6 Std. -
So, 31.05. 8:00 0.0 l/m2 in 12 Std. -
So, 31.05. 2:00 0.0 l/m2 in 6 Std. -
Sa, 30.05. 20:00 0.0 l/m2 in 12 Std. -
Ortszeit Niederschlagsmenge Niederschlagsart
Mo, 01.06. 19:00 0.0 l/m2 in 1 Std. -
Mo, 01.06. 18:50 keine Meldung -
Mo, 01.06. 18:40 keine Meldung -
Mo, 01.06. 18:30 0.0 l/m2 in 1 Std. -
Mo, 01.06. 18:20 keine Meldung -
Mo, 01.06. 18:10 keine Meldung -
Mo, 01.06. 18:00 0.0 l/m2 in 1 Std. -
Mo, 01.06. 17:30 0.0 l/m2 in 1 Std. -
Mo, 01.06. 17:00 0.0 l/m2 in 1 Std. -
Mo, 01.06. 16:30 0.0 l/m2 in 1 Std. -
Mo, 01.06. 16:00 0.0 l/m2 in 1 Std. -
Ortszeit Stärke Spitze Richtung
km/h Bft. km/h Grad Sektor
Mo, 01.06. 14:00 18 3 36 90° O
Mo, 01.06. 8:00 9 2 17 90° O
Mo, 01.06. 2:00 9 2 30 100° O
So, 31.05. 20:00 17 3 37 40° NO
So, 31.05. 14:00 19 3 37 60° NO
So, 31.05. 8:00 13 3 19 70° O
So, 31.05. 2:00 9 2 35 90° O
Sa, 30.05. 20:00 19 3 39 60° NO
Ortszeit Stärke Spitze Richtung
km/h Bft. km/h Grad Sektor
Mo, 01.06. 19:00 15 3 24 20° N
Mo, 01.06. 18:50 15 3 - 20° N
Mo, 01.06. 18:40 11 2 - 20° N
Mo, 01.06. 18:30 11 2 25 40° NO
Mo, 01.06. 18:20 11 2 - 40° NO
Mo, 01.06. 18:10 13 3 - 40° NO
Mo, 01.06. 18:00 14 3 25 10° N
Mo, 01.06. 17:30 14 3 22 10° N
Mo, 01.06. 17:00 13 3 28 50° NO
Mo, 01.06. 16:30 11 2 29 70° O
Mo, 01.06. 16:00 13 3 30 70° O
Ortszeit Untergrenze Bedeckung Gattung
total tief tief mittel hoch
Mo, 01.06. 14:00 - 0/8 0/8 - - -
Mo, 01.06. 8:00 9000 m 2/8 0/8 - - -
Mo, 01.06. 2:00 10500 m 8/8 0/8 - - -
So, 31.05. 20:00 10500 m 8/8 0/8 - - -
So, 31.05. 14:00 - 0/8 0/8 - - -
So, 31.05. 8:00 - 0/8 0/8 - - -
So, 31.05. 2:00 - 0/8 0/8 - - -
Sa, 30.05. 20:00 - 0/8 0/8 - - -
Ortszeit Bedeckungsgrad in Achtel und Wolkenuntergrenze
Mo, 01.06. 19:00 5(10500m)
Mo, 01.06. 18:50 5(10500m)
Mo, 01.06. 18:40 1(10500m)
Mo, 01.06. 18:30 keine Wolken
Mo, 01.06. 18:20 keine Wolken
Mo, 01.06. 18:10 keine Wolken
Mo, 01.06. 18:00 1(10500m)
Mo, 01.06. 17:30 2(10500m)
Mo, 01.06. 17:00 3(10500m)
Mo, 01.06. 16:30 2(10500m)
Mo, 01.06. 16:00 keine Wolken
Ortszeit Luftdruck NN (hPa) Tendenz (hPa in 3 Std.)
Mo, 01.06. 14:00 1021 - 1,1
Mo, 01.06. 8:00 1022 + 0,5
Mo, 01.06. 2:00 1022 + 0,5
So, 31.05. 20:00 1020 - 0,2
So, 31.05. 14:00 1021 - 0,8
So, 31.05. 8:00 1023 + 0,4
So, 31.05. 2:00 1023 - 0,1
Sa, 30.05. 20:00 1020 - 0,7
Ortszeit Luftdruck NN (hPa) Tendenz (hPa in 3 Std.)
Mo, 01.06. 19:00 1019 - 1,0
Mo, 01.06. 18:50 1019 keine Meldung
Mo, 01.06. 18:40 1019 keine Meldung
Mo, 01.06. 18:30 1019 - 1,0
Mo, 01.06. 18:20 1019 keine Meldung
Mo, 01.06. 18:10 1019 keine Meldung
Mo, 01.06. 18:00 1019 - 1,3
Mo, 01.06. 17:30 1019 - 1,2
Mo, 01.06. 17:00 1019 - 1,0
Mo, 01.06. 16:30 1020 - 1,1
Mo, 01.06. 16:00 1020 - 1,2
Ortszeit Schneehöhe (cm)
Mo, 01.06. 14:00 -
Mo, 01.06. 8:00 -
Mo, 01.06. 2:00 -
So, 31.05. 20:00 -
So, 31.05. 14:00 -
So, 31.05. 8:00 -
So, 31.05. 2:00 -
Sa, 30.05. 20:00 -
Ortszeit Schneehöhe (cm)
Mo, 01.06. 19:00 -
Mo, 01.06. 18:50 -
Mo, 01.06. 18:40 -
Mo, 01.06. 18:30 -
Mo, 01.06. 18:20 -
Mo, 01.06. 18:10 -
Mo, 01.06. 18:00 -
Mo, 01.06. 17:30 -
Mo, 01.06. 17:00 -
Mo, 01.06. 16:30 -
Mo, 01.06. 16:00 -
Link zu dieser Seite / Seite empfehlen

Das Wetter in ...